Time;durP1;ratioP1;P1;durP2;ratioP2;P2;SDS_P1;SDS_P2;PMS_P1;PMS_P2;Temp;Humidity;BMP_temperature;BMP_pressure;BME280_temperature;BME280_humidity;BME280_pressure;Samples;Min_cycle;Max_cycle;Signal;HPM_P1;HPM_P2
2023/01/22 00:01:30;;;;;;;3.40;3.10;;;15.30;57.80;16.20;102191.00;;;;5031952;28;20206;-48
2023/01/22 00:03:55;;;;;;;3.27;3.00;;;15.30;57.80;16.00;102189.00;;;;5032082;28;20210;-45
2023/01/22 00:06:22;;;;;;;3.30;3.03;;;15.30;57.80;16.20;102187.00;;;;5031991;28;20194;-45
2023/01/22 00:08:48;;;;;;;3.70;3.40;;;15.20;57.70;16.10;102198.00;;;;5032285;28;20202;-46
2023/01/22 00:11:15;;;;;;;3.50;3.20;;;15.20;58.30;16.10;102192.00;;;;5032012;28;20291;-46
2023/01/22 00:13:40;;;;;;;3.50;3.20;;;15.20;57.70;16.10;102186.00;;;;5031956;28;20175;-46
2023/01/22 00:16:06;;;;;;;3.47;3.17;;;15.20;57.70;16.10;102182.00;;;;5031608;28;20662;-46
2023/01/22 00:18:33;;;;;;;3.20;3.00;;;15.20;57.70;16.10;102182.00;;;;5031995;28;20202;-45
2023/01/22 00:20:58;;;;;;;3.43;3.23;;;15.10;57.70;16.00;102178.00;;;;5031828;28;20654;-45
2023/01/22 00:23:25;;;;;;;3.17;2.97;;;15.20;57.70;16.00;102161.00;;;;5031755;28;20289;-46
2023/01/22 00:26:06;;;;;;;3.10;2.90;;;15.10;57.70;16.00;102164.00;;;;5031685;28;20790;-45
2023/01/22 00:28:32;;;;;;;3.43;3.13;;;15.10;57.70;16.00;102171.00;;;;5031270;28;20203;-47
2023/01/22 00:31:01;;;;;;;3.47;3.17;;;15.10;57.70;16.00;102161.00;;;;5031237;28;20171;-48
2023/01/22 00:33:27;;;;;;;3.20;3.00;;;15.00;57.60;15.90;102166.00;;;;5030991;28;20166;-47
2023/01/22 00:35:53;;;;;;;3.30;3.00;;;15.00;57.60;15.90;102171.00;;;;5030866;28;20178;-45
2023/01/22 00:38:19;;;;;;;3.20;3.00;;;15.00;57.60;15.90;102157.00;;;;5030576;28;20190;-46
2023/01/22 00:40:45;;;;;;;3.50;3.20;;;15.00;57.60;15.90;102162.00;;;;5030675;28;20179;-46
2023/01/22 00:43:10;;;;;;;3.40;3.10;;;15.00;57.70;15.90;102169.00;;;;5030628;28;20189;-45
2023/01/22 00:45:36;;;;;;;3.40;3.10;;;14.90;57.60;15.80;102151.00;;;;5030584;28;20540;-45
2023/01/22 00:48:02;;;;;;;3.50;3.20;;;14.90;57.60;15.80;102154.00;;;;5030811;28;20201;-47
2023/01/22 00:50:27;;;;;;;3.37;3.07;;;14.90;57.60;15.80;102140.00;;;;5030168;28;20178;-46
2023/01/22 00:52:53;;;;;;;3.13;2.93;;;14.90;57.60;15.80;102151.00;;;;5030478;28;20203;-46
2023/01/22 00:55:19;;;;;;;3.17;2.97;;;14.90;57.50;15.80;102143.00;;;;5030335;28;20759;-46
2023/01/22 00:57:44;;;;;;;3.23;3.03;;;14.90;57.50;15.70;102146.00;;;;5030320;28;20171;-45
2023/01/22 01:00:13;;;;;;;3.10;2.90;;;14.90;57.50;15.70;102141.00;;;;5030372;28;20229;-48
2023/01/22 01:03:25;;;;;;;3.10;2.90;;;14.80;57.40;15.70;102137.00;;;;5029936;28;20187;-47
2023/01/22 01:05:25;;;;;;;3.50;3.20;;;14.80;57.40;15.70;102139.00;;;;5030382;28;20195;-45
2023/01/22 01:07:51;;;;;;;3.70;3.40;;;14.80;57.50;15.70;102139.00;;;;5030426;28;20189;-45
2023/01/22 01:10:17;;;;;;;3.73;3.43;;;14.80;57.50;15.60;102140.00;;;;5030325;28;20183;-47
2023/01/22 01:12:42;;;;;;;3.13;2.93;;;14.70;57.50;15.60;102133.00;;;;5030017;28;20207;-47
2023/01/22 01:15:09;;;;;;;3.23;3.03;;;14.70;57.50;15.60;102131.00;;;;5030243;28;20701;-46
2023/01/22 01:17:35;;;;;;;3.23;3.03;;;14.70;57.60;15.60;102130.00;;;;5032985;28;20533;-46
2023/01/22 01:20:01;;;;;;;3.30;3.10;;;14.70;57.60;15.60;102126.00;;;;5040682;28;20201;-46
2023/01/22 01:22:26;;;;;;;3.30;3.10;;;14.60;57.50;15.60;102130.00;;;;5040479;28;20189;-46
2023/01/22 01:24:52;;;;;;;3.20;3.00;;;14.70;57.60;15.50;102120.00;;;;5037554;28;20186;-46
2023/01/22 01:27:18;;;;;;;3.40;3.20;;;14.70;57.40;15.50;102122.00;;;;5029920;28;20226;-46
2023/01/22 01:29:43;;;;;;;3.30;3.10;;;14.70;57.40;15.50;102125.00;;;;5029969;28;20826;-46
2023/01/22 01:32:09;;;;;;;3.00;2.80;;;14.60;57.30;15.50;102113.00;;;;5029750;28;20221;-44
2023/01/22 01:34:35;;;;;;;3.43;3.13;;;14.60;57.30;15.50;102118.00;;;;5036742;28;20767;-47
2023/01/22 01:37:00;;;;;;;3.50;3.20;;;14.60;57.30;15.40;102117.00;;;;5029126;28;20175;-46
2023/01/22 01:39:26;;;;;;;3.33;3.03;;;14.60;57.30;15.40;102120.00;;;;5029590;28;20186;-47
2023/01/22 01:41:52;;;;;;;3.70;3.40;;;14.60;57.30;15.40;102119.00;;;;5029632;28;20175;-46
2023/01/22 01:44:22;;;;;;;3.40;3.10;;;14.60;57.30;15.40;102108.00;;;;5029675;28;20744;-46
2023/01/22 01:46:53;;;;;;;3.50;3.20;;;14.50;57.40;15.40;102110.00;;;;5029195;28;20175;-46
2023/01/22 01:49:27;;;;;;;3.03;2.83;;;14.60;57.30;15.40;102119.00;;;;5028301;28;20195;-47
2023/01/22 01:51:55;;;;;;;3.17;2.97;;;14.50;57.30;15.40;102111.00;;;;5027925;28;20299;-46
2023/01/22 01:54:21;;;;;;;3.30;3.10;;;14.40;57.20;15.40;102119.00;;;;5027854;28;20225;-50
2023/01/22 01:56:50;;;;;;;3.10;2.90;;;14.50;57.30;15.30;102119.00;;;;5029249;28;20675;-47
2023/01/22 01:59:17;;;;;;;3.60;3.30;;;14.50;57.30;15.30;102116.00;;;;5029417;28;20260;-45
2023/01/22 02:01:47;;;;;;;3.03;2.80;;;14.40;57.30;15.30;102114.00;;;;5011727;28;20257;-47
2023/01/22 02:04:13;;;;;;;3.20;2.90;;;14.40;57.30;15.30;102111.00;;;;5040490;28;20234;-48
2023/01/22 02:06:40;;;;;;;3.07;2.87;;;14.40;57.30;15.30;102126.00;;;;5050002;28;20188;-46
2023/01/22 02:09:05;;;;;;;3.30;3.00;;;14.30;57.20;15.30;102110.00;;;;5030055;28;20206;-47
2023/01/22 02:11:31;;;;;;;3.27;3.07;;;14.40;57.20;15.30;102109.00;;;;5028780;28;20199;-46
2023/01/22 02:14:01;;;;;;;3.03;2.83;;;14.40;57.20;15.30;102113.00;;;;5028963;28;20636;-46
2023/01/22 02:16:27;;;;;;;3.20;3.00;;;14.40;57.30;15.20;102110.00;;;;5011555;28;20217;-45
2023/01/22 02:18:52;;;;;;;3.00;2.80;;;14.30;57.20;15.20;102111.00;;;;5028593;28;20273;-46
2023/01/22 02:21:41;;;;;;;3.07;2.87;;;14.30;57.30;15.20;102108.00;;;;5028635;28;20880;-46
2023/01/22 02:24:15;;;;;;;3.20;3.00;;;14.30;57.30;15.20;102113.00;;;;5028869;28;20163;-46
2023/01/22 02:26:42;;;;;;;3.10;2.90;;;14.30;57.40;15.20;102109.00;;;;5027758;28;20202;-46
2023/01/22 02:29:08;;;;;;;3.10;2.90;;;14.20;57.30;15.20;102101.00;;;;5028774;28;20194;-47
2023/01/22 02:31:35;;;;;;;3.10;2.87;;;14.30;57.20;15.20;102098.00;;;;5027349;28;20206;-47
2023/01/22 02:34:01;;;;;;;3.20;3.00;;;14.30;57.30;15.20;102105.00;;;;5028717;28;20265;-46
2023/01/22 02:36:28;;;;;;;3.20;3.00;;;14.20;57.20;15.10;102109.00;;;;5028984;28;20249;-45
2023/01/22 02:38:54;;;;;;;3.20;3.00;;;14.20;57.20;15.10;102100.00;;;;5028575;28;20239;-46
2023/01/22 02:41:20;;;;;;;3.40;3.10;;;14.20;57.20;15.10;102095.00;;;;5028685;28;20175;-45
2023/01/22 02:43:46;;;;;;;3.20;3.00;;;14.20;57.20;15.10;102098.00;;;;5028689;28;20179;-47
2023/01/22 02:46:11;;;;;;;3.00;2.80;;;14.20;57.10;15.10;102101.00;;;;5028922;28;20182;-44
2023/01/22 02:48:37;;;;;;;2.90;2.70;;;14.20;57.20;15.10;102094.00;;;;5028720;28;20561;-45
2023/01/22 02:51:03;;;;;;;3.03;2.83;;;14.20;57.20;15.10;102096.00;;;;5028779;28;20229;-46
2023/01/22 02:53:29;;;;;;;3.20;3.00;;;14.10;57.10;15.00;102105.00;;;;5028373;28;20236;-46
2023/01/22 02:55:55;;;;;;;2.90;2.70;;;14.10;57.10;15.00;102097.00;;;;5027429;28;20187;-45
2023/01/22 02:58:20;;;;;;;2.97;2.77;;;14.10;57.10;15.00;102097.00;;;;5028970;28;20203;-46
2023/01/22 03:00:46;;;;;;;2.90;2.70;;;14.10;57.10;15.00;102100.00;;;;5028976;28;20225;-47
2023/01/22 03:03:14;;;;;;;3.10;2.90;;;14.10;57.10;15.00;102097.00;;;;5028471;28;20194;-46
2023/01/22 03:05:58;;;;;;;3.00;2.80;;;14.10;57.10;15.00;102090.00;;;;5029561;28;20167;-45
2023/01/22 03:08:25;;;;;;;2.97;2.77;;;14.20;57.10;15.00;102087.00;;;;5014430;28;20207;-47
2023/01/22 03:10:57;;;;;;;3.00;2.80;;;14.10;57.10;14.90;102095.00;;;;5032169;28;20636;-47
2023/01/22 03:21:42;;;;;;;3.00;2.80;;;14.00;57.00;14.90;102073.00;;;;5033939;28;20313;-46
2023/01/22 03:24:08;;;;;;;2.80;2.60;;;14.00;57.00;14.90;102074.00;;;;5032027;28;20175;-46
2023/01/22 03:26:34;;;;;;;3.03;2.83;;;14.00;57.00;14.80;102070.00;;;;5031965;28;20179;-47
2023/01/22 03:29:00;;;;;;;2.93;2.73;;;14.00;57.00;14.80;102060.00;;;;5031740;28;20187;-46
2023/01/22 03:31:26;;;;;;;3.00;2.80;;;14.00;57.00;14.80;102068.00;;;;5031329;28;20211;-46
2023/01/22 03:33:51;;;;;;;3.10;2.90;;;14.00;57.00;14.80;102077.00;;;;5031854;28;20194;-46
2023/01/22 03:36:17;;;;;;;3.13;2.93;;;14.00;57.10;14.80;102075.00;;;;5031726;28;20262;-46
2023/01/22 03:38:44;;;;;;;3.30;3.00;;;14.00;57.10;14.80;102069.00;;;;5031723;28;20223;-45
2023/01/22 03:41:13;;;;;;;2.80;2.60;;;13.90;56.90;14.80;102078.00;;;;5031626;28;20183;-48
2023/01/22 03:43:39;;;;;;;2.93;2.73;;;13.90;56.90;14.80;102071.00;;;;5031397;28;20178;-47
2023/01/22 03:46:10;;;;;;;2.90;2.70;;;13.90;56.90;14.80;102064.00;;;;5031665;28;20175;-46
2023/01/22 03:48:35;;;;;;;2.87;2.67;;;13.90;56.90;14.80;102072.00;;;;5031356;28;20210;-45
2023/01/22 03:51:06;;;;;;;2.70;2.50;;;13.90;56.90;14.80;102073.00;;;;5031242;28;20174;-46
2023/01/22 03:53:33;;;;;;;3.00;2.80;;;13.90;56.90;14.70;102074.00;;;;5031350;28;20182;-46
2023/01/22 03:56:00;;;;;;;3.03;2.83;;;13.90;56.90;14.70;102077.00;;;;5030195;28;20178;-46
2023/01/22 03:58:27;;;;;;;2.80;2.60;;;13.90;56.90;14.70;102070.00;;;;5031617;28;20195;-46
2023/01/22 04:00:56;;;;;;;2.80;2.60;;;13.90;56.90;14.70;102072.00;;;;5030811;28;20174;-46
2023/01/22 04:03:25;;;;;;;3.07;2.77;;;13.80;56.90;14.70;102080.00;;;;5031411;28;20167;-47
2023/01/22 04:05:51;;;;;;;2.80;2.60;;;13.80;56.90;14.70;102072.00;;;;5031085;28;20202;-46
2023/01/22 04:08:17;;;;;;;2.80;2.60;;;13.80;56.80;14.70;102077.00;;;;5031144;28;20226;-45
2023/01/22 04:10:43;;;;;;;2.87;2.67;;;13.80;56.80;14.70;102070.00;;;;5031387;28;20174;-48
2023/01/22 04:13:09;;;;;;;2.97;2.77;;;13.80;56.80;14.60;102075.00;;;;5031156;28;20235;-45
2023/01/22 04:15:34;;;;;;;3.03;2.83;;;13.80;56.70;14.60;102063.00;;;;5031103;28;20569;-48
2023/01/22 04:18:00;;;;;;;3.20;3.00;;;13.80;56.70;14.60;102056.00;;;;5030781;28;20199;-48
2023/01/22 04:20:26;;;;;;;2.90;2.70;;;13.80;56.80;14.60;102061.00;;;;5030812;28;20183;-46
2023/01/22 04:22:51;;;;;;;3.33;3.10;;;13.70;56.70;14.60;102068.00;;;;5030793;28;20171;-46
2023/01/22 04:25:17;;;;;;;3.00;2.80;;;13.80;56.80;14.60;102061.00;;;;5030716;28;20174;-46
2023/01/22 04:27:44;;;;;;;2.80;2.60;;;13.70;56.60;14.60;102073.00;;;;5030620;28;20696;-46
2023/01/22 04:30:10;;;;;;;3.00;2.80;;;13.70;56.60;14.60;102057.00;;;;5030569;28;20174;-46
2023/01/22 04:32:36;;;;;;;2.73;2.53;;;13.70;56.70;14.60;102069.00;;;;5030409;28;20203;-45
2023/01/22 04:35:02;;;;;;;3.10;2.63;;;13.70;56.70;14.60;102064.00;;;;5022780;28;20196;-46
2023/01/22 04:37:29;;;;;;;3.70;2.70;;;13.60;57.10;14.60;102075.00;;;;5029849;28;20656;-46
2023/01/22 04:39:55;;;;;;;3.30;2.90;;;13.60;56.90;14.50;102068.00;;;;5030053;28;20194;-46
2023/01/22 04:42:21;;;;;;;9.13;2.80;;;13.60;57.00;14.50;102066.00;;;;5029305;28;20183;-47
2023/01/22 04:44:46;;;;;;;3.10;2.80;;;13.60;57.10;14.50;102056.00;;;;5032081;28;20171;-46
2023/01/22 04:47:12;;;;;;;2.70;2.50;;;13.60;57.10;14.50;102058.00;;;;5045749;28;20167;-46
2023/01/22 04:49:38;;;;;;;2.80;2.60;;;13.60;57.10;14.50;102065.00;;;;5039470;28;20259;-46
2023/01/22 04:52:04;;;;;;;4.03;2.70;;;13.60;57.00;14.50;102069.00;;;;5029844;28;20230;-46
2023/01/22 04:54:29;;;;;;;3.77;2.67;;;13.60;57.00;14.50;102075.00;;;;5030318;28;20695;-45
2023/01/22 04:56:55;;;;;;;3.03;2.67;;;13.60;57.00;14.50;102077.00;;;;5029805;28;20263;-48
2023/01/22 04:59:21;;;;;;;3.00;2.70;;;13.60;57.00;14.40;102055.00;;;;5029616;28;20197;-46
2023/01/22 05:01:49;;;;;;;6.03;2.67;;;13.60;57.00;14.40;102067.00;;;;5029583;28;20182;-45
2023/01/22 05:04:15;;;;;;;3.00;2.77;;;13.60;57.00;14.40;102070.00;;;;5028922;28;20253;-45
2023/01/22 05:06:41;;;;;;;3.30;2.53;;;13.60;56.90;14.40;102067.00;;;;5029705;28;20265;-46
2023/01/22 05:09:06;;;;;;;3.07;2.87;;;13.60;57.00;14.40;102072.00;;;;5030095;28;20573;-45
2023/01/22 05:11:32;;;;;;;2.70;2.50;;;13.60;57.00;14.40;102065.00;;;;5029713;28;20191;-47
2023/01/22 05:13:58;;;;;;;2.43;2.27;;;13.50;56.90;14.40;102074.00;;;;5029230;28;20175;-47
2023/01/22 05:16:24;;;;;;;2.67;2.47;;;13.50;56.90;14.40;102067.00;;;;5029127;28;20167;-47
2023/01/22 05:18:49;;;;;;;2.63;2.43;;;13.50;56.90;14.40;102066.00;;;;5029223;28;20191;-46
2023/01/22 05:21:15;;;;;;;3.27;3.07;;;13.50;56.80;14.40;102067.00;;;;5028896;28;20672;-47
2023/01/22 05:23:42;;;;;;;3.30;3.00;;;13.50;56.70;14.30;102071.00;;;;5029454;28;20590;-46
2023/01/22 05:26:08;;;;;;;4.27;3.13;;;13.50;56.70;14.30;102070.00;;;;5029022;28;20171;-47
2023/01/22 05:28:34;;;;;;;3.50;3.20;;;13.50;56.70;14.30;102068.00;;;;5028164;28;20270;-46
2023/01/22 05:30:59;;;;;;;3.80;3.50;;;13.40;56.60;14.30;102078.00;;;;5028891;28;20175;-46
2023/01/22 05:33:28;;;;;;;3.63;3.33;;;13.50;56.60;14.30;102073.00;;;;5028300;28;20234;-47
2023/01/22 05:35:56;;;;;;;4.90;3.50;;;13.40;56.50;14.30;102073.00;;;;5038237;28;20221;-47
2023/01/22 05:38:22;;;;;;;6.90;4.10;;;13.40;56.40;14.20;102070.00;;;;5040134;28;20206;-46
2023/01/22 05:40:48;;;;;;;8.47;4.13;;;13.30;56.30;14.20;102067.00;;;;5038885;28;20229;-48
2023/01/22 05:43:14;;;;;;;10.77;4.53;;;13.40;56.30;14.20;102065.00;;;;5029476;28;20187;-46
2023/01/22 05:45:39;;;;;;;7.27;4.17;;;13.40;56.30;14.20;102071.00;;;;5028821;28;20258;-46
2023/01/22 05:48:05;;;;;;;7.70;4.10;;;13.30;56.20;14.20;102075.00;;;;5029633;28;20203;-46
2023/01/22 05:50:31;;;;;;;10.30;4.23;;;13.30;56.20;14.20;102082.00;;;;5030007;28;20198;-45
2023/01/22 05:52:56;;;;;;;9.43;4.13;;;13.40;56.30;14.20;102082.00;;;;5028963;28;20203;-45
2023/01/22 05:55:22;;;;;;;7.40;4.60;;;13.30;56.20;14.10;102080.00;;;;5028183;28;20206;-48
2023/01/22 05:57:48;;;;;;;7.73;4.17;;;13.30;56.20;14.10;102078.00;;;;5029630;28;20257;-46
2023/01/22 06:00:14;;;;;;;8.43;4.40;;;13.30;56.20;14.10;102068.00;;;;5029429;28;20191;-46
2023/01/22 06:02:40;;;;;;;6.63;3.97;;;13.30;56.20;14.10;102081.00;;;;5027256;28;20187;-45
2023/01/22 06:05:07;;;;;;;4.97;3.93;;;13.20;56.00;14.10;102083.00;;;;5029221;28;20174;-46
2023/01/22 06:07:32;;;;;;;5.23;3.87;;;13.20;56.00;14.10;102009.00;;;;5029261;28;20178;-48
2023/01/22 06:09:58;;;;;;;7.37;4.13;;;13.20;56.00;14.10;102073.00;;;;5029085;28;20187;-48
2023/01/22 06:12:24;;;;;;;6.20;3.90;;;13.20;56.10;14.00;102072.00;;;;5027233;28;20202;-46
2023/01/22 06:14:49;;;;;;;3.73;3.43;;;13.10;56.00;14.00;102078.00;;;;5028901;28;20178;-47
2023/01/22 06:17:15;;;;;;;4.00;3.60;;;13.20;56.10;14.00;102077.00;;;;5028072;28;20674;-47
2023/01/22 06:19:41;;;;;;;5.57;3.60;;;13.20;56.10;14.00;102069.00;;;;5029237;28;20206;-47
2023/01/22 06:22:07;;;;;;;3.93;3.47;;;13.10;56.40;14.00;102076.00;;;;5029145;28;20209;-48
2023/01/22 06:24:32;;;;;;;3.50;3.20;;;13.10;56.40;14.00;102066.00;;;;5029269;28;20253;-47
2023/01/22 06:26:58;;;;;;;4.90;3.10;;;13.10;56.20;14.00;102064.00;;;;5029191;28;20166;-47
2023/01/22 06:29:24;;;;;;;3.77;3.37;;;13.10;56.20;14.00;102073.00;;;;5028533;28;20790;-46
2023/01/22 06:31:50;;;;;;;3.30;3.00;;;13.10;56.20;14.00;102066.00;;;;5028924;28;20199;-45
2023/01/22 06:34:15;;;;;;;4.97;3.23;;;13.10;56.20;14.00;102072.00;;;;5029151;28;20172;-47
2023/01/22 06:36:41;;;;;;;3.80;3.10;;;13.10;56.20;14.00;102063.00;;;;5029677;28;20171;-45
2023/01/22 06:39:07;;;;;;;3.10;2.80;;;13.10;56.20;14.00;102069.00;;;;5029564;28;20799;-46
2023/01/22 06:41:32;;;;;;;3.20;2.90;;;13.10;56.20;14.00;102067.00;;;;5033244;28;20205;-47
2023/01/22 06:43:58;;;;;;;3.57;2.80;;;13.10;56.20;13.90;102076.00;;;;5033563;28;20181;-46
2023/01/22 06:46:24;;;;;;;4.07;2.60;;;13.10;56.90;13.90;102081.00;;;;5035147;28;20171;-47
2023/01/22 06:48:50;;;;;;;3.00;2.70;;;13.10;56.20;13.90;102070.00;;;;5034421;28;20199;-47
2023/01/22 06:51:15;;;;;;;2.80;2.60;;;13.00;56.20;13.60;102083.00;;;;5034065;28;20167;-46
2023/01/22 06:53:41;;;;;;;3.33;2.90;;;13.00;56.30;13.90;102084.00;;;;5033885;28;20795;-45
2023/01/22 06:56:07;;;;;;;3.83;2.93;;;13.00;56.20;13.90;102088.00;;;;5033359;28;20182;-46
2023/01/22 06:58:33;;;;;;;3.13;2.63;;;13.00;56.30;13.90;102083.00;;;;5033287;28;20199;-45
2023/01/22 07:01:00;;;;;;;2.70;2.50;;;13.00;56.30;13.90;102101.00;;;;5032887;28;20895;-47
2023/01/22 07:03:26;;;;;;;2.77;2.57;;;13.10;56.40;13.90;102099.00;;;;5033218;28;20186;-47
2023/01/22 07:05:59;;;;;;;2.57;2.37;;;13.00;56.30;13.90;102093.00;;;;5033053;28;20591;-46
2023/01/22 07:08:26;;;;;;;2.67;2.43;;;13.00;56.30;13.90;102096.00;;;;5033189;28;20672;-47
2023/01/22 07:10:52;;;;;;;2.93;2.60;;;13.00;56.30;13.80;102100.00;;;;5032829;28;20183;-45
2023/01/22 07:13:18;;;;;;;2.90;2.50;;;13.00;56.30;13.90;102106.00;;;;5032248;28;20256;-46
2023/01/22 07:15:43;;;;;;;3.27;2.60;;;13.00;56.40;13.80;102111.00;;;;5032837;28;20175;-46
2023/01/22 07:18:10;;;;;;;3.27;2.30;;;13.00;56.40;13.80;102102.00;;;;5032789;28;20195;-46
2023/01/22 07:20:35;;;;;;;3.57;2.37;;;13.00;56.30;13.80;102118.00;;;;5032959;28;20190;-47
2023/01/22 07:23:01;;;;;;;2.50;2.20;;;13.00;56.40;13.80;102116.00;;;;5032070;28;20194;-45
2023/01/22 07:25:27;;;;;;;2.30;2.10;;;13.00;56.40;13.80;102115.00;;;;5032798;28;20178;-46
2023/01/22 07:28:01;;;;;;;2.53;2.33;;;13.00;56.50;13.80;102131.00;;;;5040637;28;20186;-47
2023/01/22 07:30:27;;;;;;;2.40;2.20;;;13.00;56.50;13.80;102116.00;;;;5033175;28;20643;-48
2023/01/22 07:32:52;;;;;;;2.70;2.30;;;13.00;56.50;13.80;102134.00;;;;5033958;28;20213;-46
2023/01/22 07:35:18;;;;;;;2.57;2.33;;;12.90;56.40;13.80;102130.00;;;;5033299;28;20171;-47
2023/01/22 07:37:51;;;;;;;2.63;2.43;;;12.90;56.40;13.70;102144.00;;;;5032443;28;20171;-46
2023/01/22 07:40:17;;;;;;;2.70;2.40;;;12.90;56.50;13.70;102139.00;;;;5032571;28;20262;-47
2023/01/22 07:42:43;;;;;;;2.60;2.40;;;12.90;56.40;13.70;102142.00;;;;5031983;28;20237;-46
2023/01/22 07:45:09;;;;;;;2.67;2.47;;;12.90;56.40;13.70;102143.00;;;;5032274;28;20179;-49
2023/01/22 07:47:34;;;;;;;2.43;2.23;;;12.90;56.50;13.70;102144.00;;;;5032362;28;20183;-45
2023/01/22 07:50:00;;;;;;;2.27;2.10;;;12.90;56.50;13.70;102146.00;;;;5032319;28;20206;-47
2023/01/22 07:52:26;;;;;;;2.67;2.20;;;12.80;56.40;13.70;102141.00;;;;5019509;28;20217;-46
2023/01/22 07:54:51;;;;;;;2.10;2.00;;;12.90;56.60;13.70;102137.00;;;;5011804;28;20176;-45
2023/01/22 07:57:17;;;;;;;2.40;2.20;;;12.90;56.50;13.70;102144.00;;;;5012017;28;20171;-47
2023/01/22 07:59:43;;;;;;;2.50;2.30;;;12.80;56.40;13.70;102142.00;;;;5011790;28;20561;-46
2023/01/22 08:02:11;;;;;;;2.43;2.23;;;12.80;56.50;13.70;102149.00;;;;5010924;28;20231;-46
2023/01/22 08:04:38;;;;;;;2.47;2.27;;;12.80;56.50;13.70;102163.00;;;;5011924;28;20199;-47
2023/01/22 08:07:04;;;;;;;2.43;2.23;;;12.80;56.50;13.60;102147.00;;;;5011746;28;20875;-47
2023/01/22 08:09:30;;;;;;;2.77;2.30;;;12.80;56.50;13.60;102148.00;;;;5030596;28;20199;-46
2023/01/22 08:11:56;;;;;;;2.40;2.20;;;12.80;56.60;13.60;102141.00;;;;5030482;28;20206;-46
2023/01/22 08:14:21;;;;;;;2.57;2.30;;;12.80;56.60;13.60;102159.00;;;;5031487;28;20167;-46
2023/01/22 08:16:47;;;;;;;2.40;2.20;;;12.80;56.60;13.60;102159.00;;;;5031500;28;20171;-47
2023/01/22 08:19:14;;;;;;;2.40;2.20;;;12.80;56.60;13.60;102159.00;;;;5031649;28;20194;-46
2023/01/22 08:21:39;;;;;;;2.40;2.17;;;12.70;56.50;13.60;102160.00;;;;5028644;28;20716;-46
2023/01/22 08:24:07;;;;;;;2.70;2.50;;;12.70;56.50;13.60;102158.00;;;;5031804;28;20182;-46
2023/01/22 08:26:32;;;;;;;2.10;2.00;;;12.70;56.60;13.60;102164.00;;;;5031272;28;20226;-46
2023/01/22 08:28:58;;;;;;;2.40;2.20;;;12.70;56.60;13.60;102161.00;;;;5030101;28;20672;-45
2023/01/22 08:31:24;;;;;;;2.10;2.00;;;12.70;56.60;13.60;102158.00;;;;5029793;28;20845;-46
2023/01/22 08:33:49;;;;;;;2.23;2.03;;;12.70;56.60;13.60;102178.00;;;;5030284;28;20190;-45
2023/01/22 08:36:15;;;;;;;2.90;2.33;;;12.70;57.10;13.60;102162.00;;;;5031281;28;20232;-46
2023/01/22 08:38:41;;;;;;;4.23;2.33;;;12.70;57.40;13.60;102167.00;;;;5029743;28;20222;-46
2023/01/22 08:41:06;;;;;;;3.37;2.33;;;12.60;57.30;13.50;102160.00;;;;5028969;28;20628;-47
2023/01/22 08:43:32;;;;;;;2.30;2.10;;;12.60;57.50;13.50;102164.00;;;;5031134;28;20640;-47
2023/01/22 08:45:58;;;;;;;2.30;2.10;;;12.60;57.50;13.60;102165.00;;;;5031062;28;20608;-47
2023/01/22 08:48:24;;;;;;;3.60;2.30;;;12.70;57.90;13.60;102166.00;;;;5030655;28;20194;-46
2023/01/22 08:50:49;;;;;;;2.47;2.10;;;12.70;58.10;13.60;102152.00;;;;5031492;28;20209;-48
2023/01/22 08:53:15;;;;;;;2.30;2.10;;;12.80;58.10;13.60;102155.00;;;;5030584;28;20811;-46
2023/01/22 08:55:46;;;;;;;4.80;2.10;;;12.80;58.10;13.70;102168.00;;;;5030725;28;20171;-47
2023/01/22 08:58:13;;;;;;;3.10;1.90;;;12.90;58.20;13.70;102163.00;;;;5029103;28;20207;-46
2023/01/22 09:00:39;;;;;;;3.03;2.00;;;13.00;58.20;13.80;102161.00;;;;5034935;28;20175;-46
2023/01/22 09:03:05;;;;;;;1.90;1.80;;;13.10;58.20;13.90;102163.00;;;;5030731;28;20179;-46
2023/01/22 09:05:31;;;;;;;2.10;1.90;;;13.20;58.10;14.00;102133.00;;;;5030637;28;20190;-46
2023/01/22 09:07:56;;;;;;;5.50;1.97;;;13.30;58.10;14.00;102151.00;;;;5029974;28;20187;-45
2023/01/22 09:10:22;;;;;;;2.00;1.90;;;13.40;58.00;14.10;102164.00;;;;5030227;28;20182;-45
2023/01/22 09:12:48;;;;;;;2.00;1.90;;;13.50;58.00;14.30;102164.00;;;;5030035;28;20266;-46
2023/01/22 09:15:14;;;;;;;1.80;1.70;;;13.60;58.00;14.30;102160.00;;;;5030321;28;20246;-46
2023/01/22 09:17:40;;;;;;;2.13;1.97;;;13.70;57.90;14.50;102158.00;;;;5029363;28;20163;-48
2023/01/22 09:20:06;;;;;;;2.37;1.80;;;13.80;58.00;14.60;102163.00;;;;5028972;28;20209;-45
2023/01/22 09:22:32;;;;;;;1.97;1.77;;;13.90;57.90;14.70;102163.00;;;;5029870;28;20183;-46
2023/01/22 09:24:58;;;;;;;2.03;1.90;;;14.10;57.90;14.80;102169.00;;;;5029857;28;20651;-45
2023/01/22 09:27:23;;;;;;;2.07;1.80;;;14.10;57.80;14.90;102158.00;;;;5030065;28;20183;-46
2023/01/22 09:29:49;;;;;;;2.00;1.90;;;14.20;57.70;15.00;102172.00;;;;5029831;28;20561;-46
2023/01/22 09:32:15;;;;;;;1.90;1.80;;;14.30;57.80;15.10;102171.00;;;;5029546;28;20209;-46
2023/01/22 09:34:41;;;;;;;2.00;1.80;;;14.40;57.60;15.20;102164.00;;;;5030466;28;20175;-47
2023/01/22 09:37:09;;;;;;;1.90;1.80;;;14.50;57.60;15.30;102173.00;;;;5029674;28;20636;-47
2023/01/22 09:39:35;;;;;;;1.90;1.80;;;14.60;57.60;15.00;102175.00;;;;5028405;28;20198;-46
2023/01/22 09:42:01;;;;;;;5.37;1.80;;;14.70;57.70;15.50;102184.00;;;;5029621;28;20229;-47
2023/01/22 09:44:36;;;;;;;4.20;1.80;;;14.80;58.00;15.50;102181.00;;;;5021128;28;20178;-44
2023/01/22 09:47:36;;;;;;;2.63;1.77;;;14.90;58.10;15.70;102182.00;;;;5025545;28;20919;-45
2023/01/22 09:50:31;;;;;;;2.10;1.87;;;15.00;58.10;15.80;102175.00;;;;5029518;28;20559;-46
2023/01/22 09:53:00;;;;;;;1.80;1.70;;;15.10;58.10;15.80;102171.00;;;;5037330;28;20294;-47
2023/01/22 09:55:30;;;;;;;4.20;1.80;;;15.10;58.00;15.90;102179.00;;;;5037891;28;20181;-46
2023/01/22 09:57:58;;;;;;;1.80;1.70;;;15.20;57.90;16.00;102179.00;;;;5035850;28;20240;-45
2023/01/22 10:00:31;;;;;;;5.90;1.70;;;15.30;57.90;16.10;102165.00;;;;5028356;28;20193;-46
2023/01/22 10:03:01;;;;;;;2.53;1.80;;;15.30;57.80;16.10;102171.00;;;;5027988;28;20600;-45
2023/01/22 10:05:42;;;;;;;1.80;1.70;;;15.40;57.90;16.20;102161.00;;;;5029450;28;20222;-47
2023/01/22 10:08:28;;;;;;;1.63;1.50;;;15.50;57.90;16.30;102179.00;;;;5028107;28;20218;-46
2023/01/22 10:10:53;;;;;;;2.00;1.60;;;15.60;57.70;16.40;102172.00;;;;5033230;28;20174;-46
2023/01/22 10:13:25;;;;;;;4.60;1.70;;;15.60;57.60;16.40;102181.00;;;;5040867;28;20191;-45
2023/01/22 10:15:53;;;;;;;1.80;1.70;;;15.80;57.50;16.50;102172.00;;;;5033163;28;20167;-46
2023/01/22 10:18:46;;;;;;;2.33;1.93;;;15.70;57.50;16.60;102184.00;;;;5029094;28;20270;-45
2023/01/22 10:21:23;;;;;;;1.80;1.70;;;15.80;57.50;16.60;102169.00;;;;5028010;28;20288;-46
2023/01/22 10:23:49;;;;;;;1.80;1.70;;;15.90;57.40;16.70;102168.00;;;;5029485;28;20155;-45
2023/01/22 10:26:23;;;;;;;5.77;1.90;;;16.00;57.30;16.80;102173.00;;;;5028335;28;20175;-45
2023/01/22 10:28:57;;;;;;;2.33;1.77;;;16.00;57.30;16.80;102181.00;;;;5027942;28;20210;-47
2023/01/22 10:31:29;;;;;;;5.90;1.90;;;16.10;57.30;16.90;102176.00;;;;5017194;28;20234;-45
2023/01/22 10:33:57;;;;;;;3.63;2.20;;;16.10;57.40;16.90;102169.00;;;;5009668;28;20152;-45
2023/01/22 10:36:23;;;;;;;4.23;2.10;;;16.20;57.40;17.00;102180.00;;;;5013354;28;20266;-47
2023/01/22 10:38:49;;;;;;;4.30;1.90;;;16.20;57.40;16.80;102180.00;;;;5028562;28;20321;-48
2023/01/22 10:41:19;;;;;;;3.07;2.00;;;16.20;57.40;17.10;102150.00;;;;5027877;28;20155;-45
2023/01/22 10:43:47;;;;;;;2.10;1.90;;;16.30;57.50;17.10;102162.00;;;;5029016;28;20158;-45
2023/01/22 10:46:22;;;;;;;2.87;2.00;;;16.40;57.70;17.10;102160.00;;;;5030712;28;20157;-46
2023/01/22 10:48:58;;;;;;;3.60;2.77;;;16.40;57.90;17.20;102161.00;;;;5031526;28;20183;-46
2023/01/22 10:51:31;;;;;;;6.10;3.50;;;16.40;58.20;17.20;102162.00;;;;5029455;28;20213;-45
2023/01/22 10:53:57;;;;;;;7.50;4.37;;;16.50;58.80;17.30;102181.00;;;;5027495;28;20179;-45
2023/01/22 10:56:32;;;;;;;8.10;4.07;;;16.50;60.20;17.30;102165.00;;;;5028965;28;20162;-45